Time;durP1;ratioP1;P1;durP2;ratioP2;P2;SDS_P1;SDS_P2;PMS_P1;PMS_P2;Temp;Humidity;BMP_temperature;BMP_pressure;BME280_temperature;BME280_humidity;BME280_pressure;Samples;Min_cycle;Max_cycle;Signal;HPM_P1;HPM_P2
2021/06/03 00:01:32;;;;;;;8.73;6.60;;;;;;;14.81;65.24;101468.22;3532162;40;20047;-53
2021/06/03 00:04:00;;;;;;;7.90;6.72;;;;;;;14.62;66.67;101471.25;3531901;40;20047;-55
2021/06/03 00:06:27;;;;;;;7.53;6.38;;;;;;;14.85;65.74;101474.34;3532036;40;20729;-54
2021/06/03 00:08:54;;;;;;;7.97;7.18;;;;;;;14.62;65.62;101474.72;3531907;40;20063;-52
2021/06/03 00:11:21;;;;;;;8.32;6.85;;;;;;;14.46;66.58;101480.31;3532349;40;20045;-55
2021/06/03 00:13:49;;;;;;;7.13;6.43;;;;;;;14.43;67.09;101473.41;3532176;40;20054;-54
2021/06/03 00:16:17;;;;;;;9.25;6.82;;;;;;;14.39;67.83;101468.16;3531939;40;20054;-53
2021/06/03 00:18:45;;;;;;;7.22;6.53;;;;;;;14.59;66.42;101464.31;3531328;40;20332;-54
2021/06/03 00:21:12;;;;;;;12.40;6.70;;;;;;;14.45;67.58;101469.13;3532246;40;20082;-53
2021/06/03 00:23:40;;;;;;;9.82;6.88;;;;;;;14.33;68.12;101468.88;3531966;40;20065;-54
2021/06/03 00:26:07;;;;;;;8.68;6.88;;;;;;;14.63;67.46;101467.84;3531778;40;20051;-56
2021/06/03 00:28:34;;;;;;;10.30;6.93;;;;;;;14.53;66.19;101464.19;3532175;40;20731;-52
2021/06/03 00:31:01;;;;;;;9.07;7.38;;;;;;;14.59;66.92;101461.75;3530462;40;20098;-53
2021/06/03 00:33:28;;;;;;;9.20;7.60;;;;;;;14.63;65.82;101465.25;3531741;40;20117;-54
2021/06/03 00:35:55;;;;;;;9.00;7.03;;;;;;;14.64;65.46;101465.28;3531565;40;20822;-51
2021/06/03 00:38:22;;;;;;;7.68;6.22;;;;;;;14.43;66.77;101470.81;3531638;40;20519;-53
2021/06/03 00:40:49;;;;;;;8.88;6.25;;;;;;;14.67;65.46;101469.66;3531929;40;20076;-55
2021/06/03 00:43:16;;;;;;;7.72;6.93;;;;;;;14.74;66.11;101471.50;3532129;40;20464;-52
2021/06/03 00:45:44;;;;;;;7.95;6.20;;;;;;;14.57;66.33;101467.72;3530844;40;20068;-55
2021/06/03 00:48:12;;;;;;;9.73;7.18;;;;;;;14.61;65.19;101464.38;3535113;40;20311;-55
2021/06/03 00:50:44;;;;;;;8.63;7.00;;;;;;;14.43;66.44;101464.81;3535020;40;20080;-56
2021/06/03 00:53:13;;;;;;;7.32;6.63;;;;;;;14.63;65.07;101457.53;3531669;40;20455;-52
2021/06/03 00:55:43;;;;;;;7.70;6.20;;;;;;;14.42;63.13;101452.72;3531791;40;20053;-52
2021/06/03 00:58:11;;;;;;;8.05;6.63;;;;;;;14.51;62.92;101451.28;3531632;40;20132;-51
2021/06/03 01:00:38;;;;;;;8.50;6.35;;;;;;;14.57;63.18;101460.84;3532082;40;20360;-53
2021/06/03 01:03:07;;;;;;;8.27;6.40;;;;;;;14.60;64.47;101457.44;3531945;40;20107;-56
2021/06/03 01:05:56;;;;;;;7.15;6.45;;;;;;;14.30;64.29;101457.63;3531872;40;20328;-57
2021/06/03 01:08:25;;;;;;;12.23;6.55;;;;;;;14.34;65.51;101452.59;3531114;40;20161;-54
2021/06/03 01:11:04;;;;;;;7.63;6.65;;;;;;;14.39;63.08;101455.25;3531530;40;20427;-53
2021/06/03 01:13:40;;;;;;;7.80;6.40;;;;;;;14.33;63.60;101461.16;3531476;40;20061;-53
2021/06/03 01:16:11;;;;;;;6.70;6.10;;;;;;;14.23;64.15;101457.47;3529311;40;20051;-55
2021/06/03 01:18:40;;;;;;;7.20;6.00;;;;;;;14.54;63.22;101455.63;3531456;40;20055;-52
2021/06/03 01:21:18;;;;;;;8.15;6.13;;;;;;;14.73;61.39;101450.00;3531659;40;20092;-51
2021/06/03 01:23:52;;;;;;;8.65;6.18;;;;;;;14.36;63.06;101450.03;3530808;40;20125;-52
2021/06/03 01:26:19;;;;;;;9.05;6.15;;;;;;;14.44;62.51;101451.94;3531667;40;20084;-53
2021/06/03 01:28:47;;;;;;;7.45;6.60;;;;;;;14.32;61.90;101451.66;3531518;40;20057;-53
2021/06/03 01:31:15;;;;;;;7.97;6.30;;;;;;;14.34;62.29;101449.13;3531368;40;20051;-56
2021/06/03 01:33:42;;;;;;;7.78;6.97;;;;;;;14.41;62.01;101449.28;3530361;40;20090;-54
2021/06/03 01:36:15;;;;;;;10.05;7.05;;;;;;;14.58;61.99;101454.84;3531613;40;20061;-54
2021/06/03 01:38:44;;;;;;;10.90;6.72;;;;;;;14.76;60.84;101456.94;3530385;40;20500;-55
2021/06/03 01:41:12;;;;;;;9.88;6.30;;;;;;;14.52;61.32;101463.34;3531458;40;20055;-54
2021/06/03 01:43:42;;;;;;;11.25;6.40;;;;;;;14.56;60.69;101464.28;3531251;40;20041;-53
2021/06/03 01:46:10;;;;;;;13.00;6.25;;;;;;;14.62;60.71;101466.09;3531254;40;20065;-49
2021/06/03 01:48:38;;;;;;;7.63;6.30;;;;;;;14.24;62.42;101464.38;3530994;40;20059;-53
2021/06/03 01:51:09;;;;;;;6.95;6.28;;;;;;;14.27;62.14;101464.44;3531345;40;20051;-51
2021/06/03 01:53:39;;;;;;;7.03;6.32;;;;;;;14.09;63.38;101469.16;3531420;40;20049;-53
2021/06/03 01:56:12;;;;;;;7.03;6.28;;;;;;;14.24;63.08;101466.09;3529862;40;20135;-51
2021/06/03 01:58:40;;;;;;;8.02;6.30;;;;;;;14.06;63.13;101468.25;3531379;40;20054;-54
2021/06/03 02:01:15;;;;;;;8.20;6.38;;;;;;;14.14;62.96;101470.16;3531257;40;20136;-54
2021/06/03 02:03:43;;;;;;;8.50;6.65;;;;;;;14.04;62.91;101475.91;3530278;40;20171;-51
2021/06/03 02:06:10;;;;;;;7.88;6.28;;;;;;;14.33;61.95;101474.03;3530924;40;20159;-53
2021/06/03 02:08:38;;;;;;;11.05;6.72;;;;;;;14.21;63.42;101478.91;3531337;40;20061;-53
2021/06/03 02:11:06;;;;;;;8.05;5.75;;;;;;;13.99;63.67;101473.22;3531256;40;20082;-54
2021/06/03 02:13:46;;;;;;;6.82;6.10;;;;;;;13.77;64.72;101478.66;3530761;40;20059;-56
2021/06/03 02:16:26;;;;;;;8.02;6.50;;;;;;;13.48;66.20;101471.06;3529994;40;20050;-52
2021/06/03 02:19:00;;;;;;;8.07;6.30;;;;;;;13.52;65.96;101478.88;3530860;40;20038;-50
2021/06/03 02:21:28;;;;;;;7.35;6.03;;;;;;;13.45;66.10;101480.41;3530860;40;20057;-55
2021/06/03 02:23:57;;;;;;;7.70;6.90;;;;;;;13.34;66.99;101481.84;3530821;40;20063;-55
2021/06/03 02:26:25;;;;;;;7.90;6.82;;;;;;;13.06;67.24;101481.03;3531211;40;20095;-51
2021/06/03 02:28:53;;;;;;;8.80;7.28;;;;;;;12.98;66.59;101485.09;3530716;40;20468;-54
2021/06/03 02:31:21;;;;;;;8.10;6.20;;;;;;;12.96;67.82;101485.06;3531294;40;20063;-55
2021/06/03 02:33:49;;;;;;;9.18;6.95;;;;;;;12.97;67.49;101483.34;3531051;40;20061;-51
2021/06/03 02:36:16;;;;;;;8.10;7.25;;;;;;;12.82;67.97;101485.47;3530996;40;20095;-56
2021/06/03 02:38:43;;;;;;;11.40;7.15;;;;;;;12.95;67.28;101485.88;3529918;40;20128;-52
2021/06/03 02:41:10;;;;;;;7.93;7.22;;;;;;;12.77;68.70;101498.19;3530961;40;20061;-53
2021/06/03 02:43:44;;;;;;;8.55;7.15;;;;;;;12.70;69.30;101493.69;3530657;40;20055;-50
2021/06/03 02:46:12;;;;;;;7.95;6.60;;;;;;;12.51;70.12;101492.25;3530933;40;20039;-56
2021/06/03 02:48:39;;;;;;;7.88;6.95;;;;;;;12.49;70.52;101492.22;3530698;40;20059;-54
2021/06/03 02:51:07;;;;;;;8.25;6.63;;;;;;;12.44;71.76;101493.78;3530879;40;20061;-54
2021/06/03 02:53:34;;;;;;;7.50;6.68;;;;;;;12.44;71.98;101496.34;3530507;40;20054;-51
2021/06/03 02:56:01;;;;;;;8.25;6.57;;;;;;;12.37;72.77;101502.13;3530690;40;20086;-52
2021/06/03 02:58:28;;;;;;;7.93;6.95;;;;;;;12.40;72.92;101507.34;3531288;40;20094;-54
2021/06/03 03:00:55;;;;;;;11.07;7.05;;;;;;;12.46;72.84;101512.69;3531315;40;20062;-52
2021/06/03 03:03:23;;;;;;;10.40;6.35;;;;;;;12.51;72.75;101505.09;3532381;40;20058;-53
2021/06/03 03:05:52;;;;;;;10.70;7.32;;;;;;;12.36;72.88;101513.22;3532424;40;20168;-54
2021/06/03 03:08:19;;;;;;;9.45;7.00;;;;;;;12.43;72.25;101512.59;3532671;40;20054;-51
2021/06/03 03:10:52;;;;;;;11.65;7.55;;;;;;;12.46;71.30;101515.25;3532173;40;20058;-53
2021/06/03 03:13:20;;;;;;;13.45;7.18;;;;;;;12.43;71.69;101516.84;3532557;40;20406;-54
2021/06/03 03:15:49;;;;;;;10.52;7.45;;;;;;;12.41;72.28;101521.06;3532563;40;20328;-54
2021/06/03 03:18:16;;;;;;;12.20;7.40;;;;;;;12.40;71.95;101522.78;3532215;40;20058;-54
2021/06/03 03:20:44;;;;;;;8.55;7.60;;;;;;;12.40;72.08;101521.91;3531075;40;20074;-50
2021/06/03 03:23:12;;;;;;;10.85;7.55;;;;;;;12.40;72.25;101522.78;3532066;40;20059;-51
2021/06/03 03:25:40;;;;;;;8.02;7.15;;;;;;;12.39;71.83;101523.59;3532043;40;20053;-54
2021/06/03 03:28:09;;;;;;;10.38;7.22;;;;;;;12.33;71.95;101518.25;3532049;40;20063;-52
2021/06/03 03:30:41;;;;;;;11.02;7.32;;;;;;;12.39;72.14;101522.72;3532041;40;20106;-55
2021/06/03 03:33:10;;;;;;;10.07;7.75;;;;;;;12.42;71.99;101522.81;3530576;40;20080;-54
2021/06/03 03:35:37;;;;;;;9.48;7.45;;;;;;;12.40;72.53;101524.47;3531855;40;20058;-51
2021/06/03 03:38:04;;;;;;;9.98;7.35;;;;;;;12.36;73.14;101523.50;3532306;40;20058;-53
2021/06/03 03:40:31;;;;;;;9.07;7.55;;;;;;;12.35;74.52;101519.19;3532078;40;20058;-50
2021/06/03 03:42:59;;;;;;;8.63;7.65;;;;;;;12.37;74.37;101520.09;3532165;40;20062;-52
2021/06/03 03:45:27;;;;;;;7.38;6.68;;;;;;;12.37;74.55;101520.09;3533248;40;20060;-50
2021/06/03 03:47:55;;;;;;;10.18;7.47;;;;;;;12.40;74.36;101516.75;3534025;40;20095;-51
2021/06/03 03:50:23;;;;;;;8.77;7.45;;;;;;;12.39;74.37;101518.47;3532397;40;20059;-52
2021/06/03 03:52:51;;;;;;;9.60;7.50;;;;;;;12.51;75.13;101515.38;3532150;40;20059;-53
2021/06/03 03:55:19;;;;;;;12.40;7.38;;;;;;;12.48;75.07;101526.47;3531853;40;20051;-50
2021/06/03 03:57:58;;;;;;;6.90;6.13;;;;;;;12.47;74.57;101529.81;3531384;40;20087;-55
2021/06/03 04:00:35;;;;;;;9.10;7.07;;;;;;;12.56;74.41;101518.09;3531111;40;20066;-52
2021/06/03 04:03:05;;;;;;;8.75;7.20;;;;;;;12.66;74.09;101517.53;3531961;40;20409;-53
2021/06/03 04:05:33;;;;;;;9.00;7.45;;;;;;;12.62;74.22;101518.31;3530343;40;20094;-52
2021/06/03 04:08:00;;;;;;;9.73;7.05;;;;;;;12.57;73.10;101515.59;3529955;40;20090;-54
2021/06/03 04:10:27;;;;;;;8.23;7.40;;;;;;;12.57;73.41;101515.59;3531276;40;20856;-54
2021/06/03 04:12:54;;;;;;;9.60;7.88;;;;;;;12.67;73.04;101519.31;3531938;40;20073;-55
2021/06/03 04:15:22;;;;;;;12.77;8.18;;;;;;;12.62;73.29;101516.59;3529712;40;20091;-54
2021/06/03 04:17:50;;;;;;;10.02;7.57;;;;;;;12.68;73.67;101526.19;3527835;40;20055;-54
2021/06/03 04:20:21;;;;;;;10.18;7.60;;;;;;;12.68;72.44;101521.94;3523168;40;20047;-51
2021/06/03 04:22:50;;;;;;;9.50;7.57;;;;;;;12.79;70.65;101523.94;3530896;40;20063;-54
2021/06/03 04:25:17;;;;;;;8.02;7.22;;;;;;;12.91;70.87;101530.31;3528762;40;20450;-55
2021/06/03 04:27:45;;;;;;;11.52;8.05;;;;;;;12.89;71.94;101531.97;3524494;40;20084;-55
2021/06/03 04:30:16;;;;;;;9.77;7.70;;;;;;;13.11;69.89;101530.03;3526496;40;20072;-57
2021/06/03 04:32:43;;;;;;;9.77;7.10;;;;;;;13.02;69.91;101535.78;3526983;40;20078;-55
2021/06/03 04:35:11;;;;;;;8.88;7.47;;;;;;;13.16;69.50;101528.47;3529867;40;20141;-55
2021/06/03 04:37:38;;;;;;;13.30;7.82;;;;;;;13.45;68.81;101534.44;3531795;40;20090;-52
2021/06/03 04:40:06;;;;;;;11.57;7.57;;;;;;;13.38;69.21;101535.13;3531967;40;20082;-51
2021/06/03 04:42:33;;;;;;;9.77;7.72;;;;;;;13.55;68.06;101531.31;3526448;40;20051;-53
2021/06/03 04:45:01;;;;;;;9.75;7.55;;;;;;;13.49;68.27;101526.84;3527472;40;20051;-57
2021/06/03 04:47:28;;;;;;;7.93;7.13;;;;;;;13.67;67.11;101526.47;3530905;40;20058;-55
2021/06/03 04:49:55;;;;;;;7.63;6.88;;;;;;;13.88;66.50;101527.88;3531338;40;20143;-55
2021/06/03 04:52:25;;;;;;;11.48;8.18;;;;;;;14.06;67.52;101535.19;3531120;40;20471;-55
2021/06/03 04:54:59;;;;;;;9.30;7.20;;;;;;;14.50;66.08;101534.56;3531432;40;20069;-55
2021/06/03 04:57:26;;;;;;;10.73;7.50;;;;;;;14.33;64.59;101532.41;3531492;40;20059;-52
2021/06/03 04:59:54;;;;;;;10.85;7.25;;;;;;;14.42;64.57;101533.53;3531271;40;20063;-52
2021/06/03 05:02:21;;;;;;;9.75;7.28;;;;;;;14.57;63.89;101539.91;3532017;40;20043;-56
2021/06/03 05:04:49;;;;;;;10.07;7.03;;;;;;;14.65;63.55;101546.06;3531681;40;20050;-52
2021/06/03 05:07:18;;;;;;;9.93;7.43;;;;;;;14.70;62.03;101544.50;3531755;40;20415;-51
2021/06/03 05:09:46;;;;;;;8.70;6.93;;;;;;;14.82;62.77;101542.16;3531725;40;20335;-56
2021/06/03 05:12:13;;;;;;;10.57;7.00;;;;;;;14.94;62.13;101557.06;3531584;40;20071;-54
2021/06/03 05:14:41;;;;;;;9.38;7.00;;;;;;;15.16;61.78;101558.34;3531492;40;20070;-55
2021/06/03 05:17:08;;;;;;;9.13;6.70;;;;;;;15.43;59.92;101558.91;3531626;40;20057;-56
2021/06/03 05:19:36;;;;;;;8.73;6.72;;;;;;;15.25;61.29;101554.28;3531476;40;20100;-51
2021/06/03 05:22:03;;;;;;;10.50;7.32;;;;;;;15.54;60.59;101553.97;3531154;40;20043;-52
2021/06/03 05:24:31;;;;;;;11.75;7.05;;;;;;;15.66;58.17;101559.38;3531548;40;20057;-54
2021/06/03 05:26:58;;;;;;;12.68;6.90;;;;;;;16.00;58.93;101565.19;3531385;40;20061;-54
2021/06/03 05:29:26;;;;;;;15.70;7.15;;;;;;;15.83;59.66;101569.19;3531609;40;20065;-51
2021/06/03 05:31:53;;;;;;;9.50;6.68;;;;;;;15.81;60.47;101561.41;3531652;40;20091;-50
2021/06/03 05:34:21;;;;;;;10.98;6.85;;;;;;;16.13;59.18;101561.06;3531726;40;20043;-55
2021/06/03 05:36:48;;;;;;;9.75;6.75;;;;;;;16.22;57.84;101554.38;3531185;40;20102;-51
2021/06/03 05:39:15;;;;;;;10.52;6.43;;;;;;;16.33;57.40;101569.19;3531270;40;20122;-51
2021/06/03 05:41:42;;;;;;;8.10;6.15;;;;;;;16.48;55.37;101565.09;3531443;40;20059;-54
2021/06/03 05:44:13;;;;;;;9.73;6.47;;;;;;;16.22;56.88;101561.22;3531566;40;20409;-53
2021/06/03 05:46:40;;;;;;;9.25;6.28;;;;;;;16.32;57.42;101567.44;3531580;40;20063;-56
2021/06/03 05:49:09;;;;;;;8.73;6.35;;;;;;;16.50;57.95;101560.84;3531465;40;20397;-55
2021/06/03 05:51:39;;;;;;;8.38;6.47;;;;;;;16.70;56.76;101560.28;3531547;40;20082;-54
2021/06/03 05:54:07;;;;;;;9.10;6.80;;;;;;;16.67;55.67;101563.66;3531422;40;20065;-54
2021/06/03 05:56:35;;;;;;;10.88;6.60;;;;;;;17.12;55.40;101564.31;3530248;40;20081;-55
2021/06/03 05:59:03;;;;;;;10.02;6.20;;;;;;;17.21;55.97;101564.44;3530974;40;20114;-53
2021/06/03 06:01:30;;;;;;;10.07;6.93;;;;;;;17.61;55.00;101567.47;3531070;40;20320;-56
2021/06/03 06:06:32;;;;;;;9.85;6.13;;;;;;;17.77;53.16;101565.09;3531137;40;20407;-57
2021/06/03 06:09:04;;;;;;;7.63;6.22;;;;;;;17.73;53.66;101576.28;3531768;40;20062;-50
2021/06/03 06:11:37;;;;;;;7.32;5.97;;;;;;;18.12;52.43;101581.84;3531866;40;20047;-53
2021/06/03 06:14:06;;;;;;;7.75;6.43;;;;;;;18.04;52.24;101579.19;3527597;40;20475;-56
2021/06/03 06:16:35;;;;;;;9.82;6.43;;;;;;;18.11;52.17;101574.91;3530997;40;20431;-56
2021/06/03 06:19:04;;;;;;;7.05;6.18;;;;;;;18.00;51.48;101573.09;3514129;40;20152;-55
2021/06/03 06:21:33;;;;;;;6.60;5.90;;;;;;;18.27;51.65;101580.25;3531085;40;20448;-54
2021/06/03 06:24:03;;;;;;;9.20;5.90;;;;;;;18.57;51.30;101584.78;3527251;40;20416;-57
2021/06/03 06:26:30;;;;;;;8.40;6.43;;;;;;;18.57;49.60;101589.97;3530949;40;20079;-57
2021/06/03 06:28:57;;;;;;;12.70;6.90;;;;;;;18.84;49.73;101591.06;3529331;40;20144;-57
2021/06/03 06:31:27;;;;;;;10.85;5.88;;;;;;;19.13;48.32;101600.75;3531060;40;20066;-55
2021/06/03 06:33:55;;;;;;;12.98;6.45;;;;;;;19.30;50.64;101606.88;3531597;40;20100;-52
2021/06/03 06:36:24;;;;;;;10.52;6.40;;;;;;;19.47;48.15;101597.44;3532037;40;20061;-57
2021/06/03 06:38:51;;;;;;;9.57;6.63;;;;;;;19.36;49.15;101609.50;3531673;40;20133;-53
2021/06/03 06:41:18;;;;;;;8.23;5.57;;;;;;;19.64;48.01;101610.50;3532389;40;20098;-56
2021/06/03 06:43:45;;;;;;;11.55;6.13;;;;;;;19.89;47.89;101608.84;3530490;40;20055;-53
2021/06/03 06:46:15;;;;;;;8.35;5.60;;;;;;;20.03;46.13;101608.88;3531968;40;20049;-56
2021/06/03 06:48:42;;;;;;;10.75;6.13;;;;;;;20.25;47.04;101613.22;3532475;40;20531;-54
2021/06/03 06:51:09;;;;;;;7.97;5.93;;;;;;;20.41;46.31;101615.84;3532422;40;20055;-54
2021/06/03 06:53:37;;;;;;;8.63;6.28;;;;;;;20.41;45.19;101621.03;3532142;40;20043;-57
2021/06/03 06:56:07;;;;;;;8.40;5.57;;;;;;;20.80;44.58;101615.84;3531043;40;20051;-56
2021/06/03 06:58:34;;;;;;;6.68;5.30;;;;;;;20.74;43.55;101618.44;3528761;40;20054;-57
2021/06/03 07:01:02;;;;;;;7.60;4.82;;;;;;;21.00;43.90;101618.38;3532205;40;20345;-57
2021/06/03 07:03:29;;;;;;;10.73;5.80;;;;;;;21.49;42.45;101614.75;3532364;40;20063;-54
2021/06/03 07:05:56;;;;;;;8.18;5.05;;;;;;;21.42;42.11;101616.53;3532315;40;20087;-57
2021/06/03 07:08:23;;;;;;;8.15;5.75;;;;;;;21.68;43.54;101621.66;3532586;40;20071;-57
2021/06/03 07:10:53;;;;;;;11.25;5.63;;;;;;;21.87;41.88;101609.38;3531973;40;20035;-54
2021/06/03 07:13:20;;;;;;;10.38;5.57;;;;;;;21.95;41.88;101623.19;3532601;40;20054;-57
2021/06/03 07:15:47;;;;;;;12.27;5.53;;;;;;;22.20;41.26;101625.69;3532399;40;20421;-55
2021/06/03 07:18:14;;;;;;;8.35;5.68;;;;;;;21.94;40.91;101621.47;3530419;40;20729;-58
2021/06/03 07:20:41;;;;;;;11.38;5.57;;;;;;;22.27;39.46;101622.13;3532528;40;20571;-54
2021/06/03 07:23:10;;;;;;;8.27;5.50;;;;;;;23.07;39.33;101624.91;3532308;40;20072;-56
2021/06/03 07:25:40;;;;;;;8.23;5.18;;;;;;;23.27;38.14;101628.16;3532068;40;20063;-55
2021/06/03 07:28:08;;;;;;;9.10;5.70;;;;;;;23.42;37.78;101621.00;3532357;40;20098;-54
2021/06/03 07:30:36;;;;;;;9.65;5.78;;;;;;;23.36;37.41;101619.34;3532125;40;20051;-53
2021/06/03 07:33:04;;;;;;;8.85;4.68;;;;;;;23.45;36.03;101623.59;3532289;40;20058;-55
2021/06/03 07:35:34;;;;;;;6.20;5.22;;;;;;;23.58;37.69;101622.56;3532297;40;20460;-55
2021/06/03 07:38:02;;;;;;;7.68;4.82;;;;;;;23.72;37.88;101623.25;3527803;40;20071;-56
2021/06/03 07:40:33;;;;;;;7.20;5.35;;;;;;;23.52;37.63;101620.84;3531776;40;20140;-55
2021/06/03 07:43:00;;;;;;;8.95;4.68;;;;;;;23.66;37.40;101622.47;3528119;40;20333;-56
2021/06/03 07:45:30;;;;;;;12.25;5.38;;;;;;;23.33;37.21;101621.97;3531312;40;20086;-55
2021/06/03 07:47:58;;;;;;;8.18;4.65;;;;;;;23.30;37.02;101617.66;3531949;40;20051;-51
2021/06/03 07:50:28;;;;;;;7.68;5.22;;;;;;;23.22;37.82;101618.63;3531218;40;20055;-55
2021/06/03 07:52:55;;;;;;;5.93;4.20;;;;;;;23.31;37.80;101611.56;3531733;40;20375;-54
2021/06/03 07:55:23;;;;;;;6.88;4.72;;;;;;;23.34;37.26;101616.75;3532471;40;20099;-53
2021/06/03 07:57:53;;;;;;;8.02;4.70;;;;;;;23.36;37.50;101622.81;3532298;40;20091;-55
2021/06/03 08:00:23;;;;;;;7.90;4.85;;;;;;;23.52;35.79;101613.00;3532305;40;20124;-53
2021/06/03 08:02:51;;;;;;;5.80;4.78;;;;;;;23.90;35.47;101622.13;3532190;40;20054;-58
2021/06/03 08:05:20;;;;;;;10.68;4.60;;;;;;;24.13;34.92;101619.16;3531995;40;20053;-56
2021/06/03 08:07:51;;;;;;;5.05;4.47;;;;;;;24.07;34.90;101620.09;3531891;40;20058;-55
2021/06/03 08:10:27;;;;;;;6.32;4.28;;;;;;;24.24;33.57;101624.22;3523159;40;20051;-53
2021/06/03 08:12:55;;;;;;;5.85;4.50;;;;;;;24.40;34.09;101617.84;3532108;40;20140;-56
2021/06/03 08:15:24;;;;;;;7.03;4.07;;;;;;;24.88;33.26;101610.03;3532266;40;20047;-55
2021/06/03 08:17:53;;;;;;;7.70;4.63;;;;;;;25.41;32.30;101618.59;3532121;40;20577;-56
2021/06/03 08:20:43;;;;;;;5.97;4.63;;;;;;;25.43;31.64;101619.44;3532006;40;20046;-54
2021/06/03 08:23:17;;;;;;;8.00;4.05;;;;;;;25.03;32.78;101611.50;3528434;40;20085;-52
2021/06/03 08:25:45;;;;;;;7.90;4.45;;;;;;;25.08;32.27;101614.91;3532062;40;20091;-56
2021/06/03 08:28:12;;;;;;;6.57;4.53;;;;;;;24.89;33.43;101615.22;3531799;40;20082;-54
2021/06/03 08:30:45;;;;;;;8.57;4.53;;;;;;;24.83;32.93;101611.88;3532016;40;20051;-52
2021/06/03 08:33:12;;;;;;;6.00;4.38;;;;;;;25.05;33.39;101609.69;3532119;40;20089;-56
2021/06/03 08:35:40;;;;;;;4.70;4.18;;;;;;;25.04;33.38;101606.22;3531861;40;20062;-53
2021/06/03 08:38:10;;;;;;;12.50;5.32;;;;;;;25.01;34.02;101619.41;3531742;40;20082;-58
2021/06/03 08:40:50;;;;;;;5.70;3.97;;;;;;;24.77;32.88;101614.59;3531885;40;20114;-51
2021/06/03 08:43:18;;;;;;;7.72;4.57;;;;;;;24.76;34.08;101612.88;3528708;40;20054;-55
2021/06/03 08:45:45;;;;;;;9.57;4.50;;;;;;;24.84;34.11;101613.59;3531603;40;20092;-52
2021/06/03 08:48:13;;;;;;;5.40;3.75;;;;;;;24.78;33.96;101608.50;3531658;40;20063;-54
2021/06/03 08:50:45;;;;;;;5.13;3.90;;;;;;;24.82;34.24;101610.13;3531764;40;20427;-57
2021/06/03 08:53:13;;;;;;;6.32;4.40;;;;;;;24.70;33.18;101605.13;3531795;40;20053;-56
2021/06/03 08:58:46;;;;;;;5.10;3.75;;;;;;;24.69;31.38;101609.53;3500392;40;20052;-54
2021/06/03 09:01:14;;;;;;;5.68;3.85;;;;;;;24.44;32.69;101595.13;3521316;40;20047;-55
2021/06/03 09:03:44;;;;;;;4.85;3.70;;;;;;;24.53;31.17;101603.66;3525548;40;20093;-50
2021/06/03 09:06:16;;;;;;;4.75;3.58;;;;;;;24.74;32.16;101597.19;3522709;40;20480;-56
2021/06/03 09:08:59;;;;;;;6.40;3.40;;;;;;;24.87;31.35;101603.06;3531512;40;20800;-54
2021/06/03 09:11:28;;;;;;;6.72;3.50;;;;;;;24.79;31.44;101610.22;3531733;40;20039;-52
2021/06/03 09:14:05;;;;;;;5.88;3.15;;;;;;;24.84;30.84;101614.47;3531878;40;20100;-51
2021/06/03 09:16:37;;;;;;;7.72;3.58;;;;;;;24.95;31.30;101611.63;3531989;40;20202;-55
2021/06/03 09:19:09;;;;;;;6.88;3.67;;;;;;;25.45;30.96;101604.53;3528343;40;20075;-57
2021/06/03 09:21:48;;;;;;;5.05;3.70;;;;;;;25.47;31.45;101602.75;3523486;40;20035;-58
2021/06/03 09:24:17;;;;;;;5.72;3.53;;;;;;;25.08;31.44;101596.56;3531548;40;20104;-55
2021/06/03 09:26:44;;;;;;;5.85;3.20;;;;;;;25.48;30.90;101601.00;3530101;40;20075;-55
2021/06/03 09:29:14;;;;;;;7.30;3.30;;;;;;;25.95;30.54;101604.31;3528779;40;20054;-56
2021/06/03 09:31:42;;;;;;;4.38;3.13;;;;;;;26.30;28.52;101608.69;3531437;40;20065;-53
2021/06/03 09:34:17;;;;;;;3.65;3.05;;;;;;;26.62;29.36;101593.03;3531417;40;20121;-51
2021/06/03 09:36:50;;;;;;;4.03;3.40;;;;;;;27.52;28.41;101610.66;3528726;40;20455;-55
2021/06/03 09:39:31;;;;;;;7.18;3.53;;;;;;;26.97;27.81;101601.69;3527441;40;20514;-56
2021/06/03 09:42:08;;;;;;;5.60;3.50;;;;;;;25.74;29.10;101603.88;3528287;40;20058;-55
2021/06/03 09:44:46;;;;;;;4.22;3.47;;;;;;;26.72;27.31;101600.66;3526728;40;20063;-53
2021/06/03 09:47:42;;;;;;;6.10;3.90;;;;;;;27.27;28.38;101599.13;3527199;40;20058;-54
2021/06/03 09:50:10;;;;;;;4.90;3.08;;;;;;;27.61;27.01;101593.72;3527246;40;20409;-53
2021/06/03 09:52:39;;;;;;;4.30;3.35;;;;;;;26.52;27.05;101591.53;3526891;40;20472;-52
2021/06/03 09:55:11;;;;;;;6.60;3.13;;;;;;;27.67;27.17;101593.53;3527338;40;20110;-54
2021/06/03 09:57:42;;;;;;;6.93;3.33;;;;;;;28.50;26.07;101591.72;3527807;40;20053;-57
2021/06/03 10:00:16;;;;;;;4.85;3.15;;;;;;;28.39;26.68;101599.16;3527305;40;20061;-55
2021/06/03 10:02:44;;;;;;;6.43;3.53;;;;;;;28.15;26.48;101592.91;3527986;40;20046;-51
2021/06/03 10:05:14;;;;;;;3.50;3.20;;;;;;;29.23;24.39;101596.13;3526000;40;20410;-57
2021/06/03 10:08:00;;;;;;;5.68;3.40;;;;;;;29.08;25.02;101588.81;3529811;40;20051;-54
2021/06/03 10:10:32;;;;;;;6.30;3.50;;;;;;;30.72;22.77;101590.13;3532283;40;20797;-54
2021/06/03 10:13:07;;;;;;;4.20;3.30;;;;;;;31.93;23.74;101594.16;3527755;40;20055;-55
2021/06/03 10:15:43;;;;;;;5.97;3.58;;;;;;;32.83;20.60;101595.78;3532043;40;20062;-52
2021/06/03 10:18:15;;;;;;;4.35;3.05;;;;;;;33.63;20.01;101594.97;3530387;40;20098;-50
2021/06/03 10:20:52;;;;;;;4.85;3.40;;;;;;;36.29;18.61;101599.72;3531853;40;20511;-55
2021/06/03 10:23:25;;;;;;;4.80;3.08;;;;;;;36.04;18.43;101597.00;3531875;40;20348;-52
2021/06/03 10:26:03;;;;;;;7.38;3.10;;;;;;;36.12;17.17;101600.84;3531894;40;20053;-51
2021/06/03 10:28:30;;;;;;;4.28;3.45;;;;;;;34.18;19.00;101589.13;3531790;40;20379;-56
2021/06/03 10:31:02;;;;;;;3.67;3.13;;;;;;;35.57;18.47;101598.31;3531811;40;20054;-50
2021/06/03 10:33:31;;;;;;;3.70;3.40;;;;;;;35.34;17.86;101583.78;3532163;40;20081;-51
2021/06/03 10:36:04;;;;;;;4.47;3.10;;;;;;;33.11;19.13;101580.13;3529685;40;20094;-54
2021/06/03 10:38:32;;;;;;;3.35;3.00;;;;;;;34.81;18.33;101586.22;3531633;40;20043;-57
2021/06/03 10:41:03;;;;;;;5.60;3.17;;;;;;;34.32;19.24;101585.66;3531864;40;20050;-56
2021/06/03 10:43:36;;;;;;;4.57;3.38;;;;;;;34.44;18.37;101583.13;3531674;40;20429;-55
2021/06/03 10:46:06;;;;;;;3.63;3.38;;;;;;;35.48;19.75;101591.75;3528512;40;20332;-56
2021/06/03 10:48:34;;;;;;;3.58;3.28;;;;;;;36.45;17.09;101594.19;3530845;40;20071;-55
2021/06/03 10:51:06;;;;;;;3.63;3.10;;;;;;;36.14;16.98;101596.25;3531127;40;20038;-54
2021/06/03 10:53:41;;;;;;;5.38;3.25;;;;;;;37.41;16.36;101594.53;3531773;40;20053;-55
2021/06/03 10:56:19;;;;;;;;;;;;;;;37.82;17.21;101593.28;3530315;40;20429;-52
2021/06/03 10:58:49;;;;;;;5.10;3.60;;;;;;;38.04;16.40;101590.72;3531179;40;19949;-54
2021/06/03 11:01:21;;;;;;;3.83;3.38;;;;;;;35.91;17.79;101579.09;3532272;40;20046;-54
2021/06/03 11:03:54;;;;;;;4.05;3.22;;;;;;;36.41;16.94;101582.00;3530264;40;20499;-52
2021/06/03 11:06:25;;;;;;;3.80;3.50;;;;;;;35.73;17.25;101577.69;3529971;40;20409;-52
2021/06/03 11:08:55;;;;;;;4.60;3.30;;;;;;;36.53;17.24;101581.19;3528373;40;20056;-54
2021/06/03 11:11:35;;;;;;;3.58;2.97;;;;;;;37.49;16.59;101577.91;3517467;40;583964;-57
2021/06/03 11:14:16;;;;;;;3.75;3.30;;;;;;;38.41;15.34;101580.75;3532046;40;20163;-53
2021/06/03 11:16:54;;;;;;;5.78;3.63;;;;;;;37.11;16.76;101570.88;3531316;40;20417;-56
2021/06/03 11:19:28;;;;;;;4.43;3.38;;;;;;;39.50;15.57;101577.38;3532267;40;20098;-54
2021/06/03 11:22:04;;;;;;;3.50;3.25;;;;;;;36.79;16.69;101568.66;3532562;40;20065;-52
2021/06/03 11:24:35;;;;;;;6.93;3.70;;;;;;;38.59;15.83;101570.38;3532334;40;20413;-52
2021/06/03 11:27:13;;;;;;;4.80;3.47;;;;;;;37.48;16.70;101566.38;3532467;40;20054;-55
2021/06/03 11:29:50;;;;;;;3.45;3.05;;;;;;;40.23;14.72;101581.09;3532317;40;20182;-54
2021/06/03 11:32:20;;;;;;;5.60;3.70;;;;;;;38.46;16.48;101573.19;3532187;40;20094;-57
2021/06/03 11:34:59;;;;;;;5.05;3.45;;;;;;;38.71;15.55;101571.25;3532316;40;20587;-52
2021/06/03 11:37:35;;;;;;;4.20;2.90;;;;;;;37.38;15.84;101562.69;3532005;40;20086;-52
2021/06/03 11:40:05;;;;;;;4.22;3.20;;;;;;;39.31;15.83;101561.97;3532260;40;20354;-55
2021/06/03 11:42:38;;;;;;;3.38;3.03;;;;;;;38.07;15.28;101554.84;3532053;40;20043;-53